Irvine, KY (40472)

12:55 PM EDT on July 27, 2016 (GMT -0400)
Irvine, Ky. | | Change Station

Elev 719 ft 37.69 °N, 83.96 °W | Updated 3 seconds ago

Mostly Cloudy
Mostly Cloudy
88.7 °F
Feels Like 103 °F
N
0.0
Wind Variable Wind from West
Gusts 1.0 mph

Today
High -- | Low -- °F
--% Chance of Precip.
Yesterday
High -- | Low -- °F
Precip. -- in
Pressure 30.05 in
Visibility 10.0 miles
Clouds Scattered Clouds 1900 ft
Mostly Cloudy 8500 ft
Mostly Cloudy 12000 ft
Heat Index 103 °F
Dew Point 78 °F
Humidity 72%
Rainfall 0.00 in
Snow Depth Not available.
6:35 AM 8:48 PM
Last Quarter, 41% visible
METAR KIOB 271635Z AUTO 22003KT 10SM SCT019 BKN085 BKN120 28/25 A3005 RMK AO2
Pressure 30.05 in
Visibility 10.0 miles
Clouds Scattered Clouds 1900 ft
Mostly Cloudy 8500 ft
Mostly Cloudy 12000 ft
Heat Index 103 °F
Dew Point 78 °F
Humidity 72%
Rainfall 0.00 in
Snow Depth Not available.
6:35 AM 8:48 PM
Last Quarter, 41% visible
METAR KIOB 271635Z AUTO 22003KT 10SM SCT019 BKN085 BKN120 28/25 A3005 RMK AO2

10-Day Weather Forecast

Almanac

Astronomy

Jul. 27, 2016 Rise Set
Actual Time
Civil Twilight
Nautical Twilight
Astronomical Twilight
Moon
Length of Visible Light
Length of Day
Tomorrow will be .
, % of the Moon is Illuminated

Today's Extremes

State Highs State Lows

Community

WunderPhotos

Upload Photos

1,927,880 photos uploaded!

WunderBlog® & News

Nearby

Air Quality

  Air Quality AQ Index Pollutant
Not available.

Snow Depth

Station Depth Elevation

Earthquake Activity

City Distance Mag. Time & Date
Minimum magnitude displayed is 2.5.

Coastal Water Temperatures

Place Temperature

Stations

Nearby Weather Stations

Station Location Temp. Windchill Dew Point Humidity Wind Precip. Elev Updated Type
                   

Watches & Warnings

There are currently no watches in effect.